sensor_id;sensor_type;location;lat;lon;timestamp;P1;durP1;ratioP1;P2;durP2;ratioP2
18772;SDS011;9515;50.810;4.418;2022-08-14T00:00:47;4.50;;;2.85;;
18772;SDS011;9515;50.810;4.418;2022-08-14T00:03:17;3.17;;;2.97;;
18772;SDS011;9515;50.810;4.418;2022-08-14T00:05:44;5.63;;;3.10;;
18772;SDS011;9515;50.810;4.418;2022-08-14T00:08:10;5.60;;;3.30;;
18772;SDS011;9515;50.810;4.418;2022-08-14T00:10:36;3.30;;;3.10;;
18772;SDS011;9515;50.810;4.418;2022-08-14T00:13:01;6.22;;;3.17;;
18772;SDS011;9515;50.810;4.418;2022-08-14T00:15:28;3.67;;;3.10;;
18772;SDS011;9515;50.810;4.418;2022-08-14T00:17:59;5.63;;;3.70;;
18772;SDS011;9515;50.810;4.418;2022-08-14T00:20:27;4.13;;;3.40;;
18772;SDS011;9515;50.810;4.418;2022-08-14T00:22:54;7.00;;;3.20;;
18772;SDS011;9515;50.810;4.418;2022-08-14T00:25:20;4.00;;;3.13;;
18772;SDS011;9515;50.810;4.418;2022-08-14T00:27:46;5.88;;;3.03;;
18772;SDS011;9515;50.810;4.418;2022-08-14T00:30:12;3.65;;;2.70;;
18772;SDS011;9515;50.810;4.418;2022-08-14T00:32:38;3.90;;;3.47;;
18772;SDS011;9515;50.810;4.418;2022-08-14T00:35:05;3.50;;;3.20;;
18772;SDS011;9515;50.810;4.418;2022-08-14T00:37:31;3.80;;;3.00;;
18772;SDS011;9515;50.810;4.418;2022-08-14T00:39:58;3.58;;;3.10;;
18772;SDS011;9515;50.810;4.418;2022-08-14T00:42:24;3.88;;;2.97;;
18772;SDS011;9515;50.810;4.418;2022-08-14T00:44:50;9.13;;;2.92;;
18772;SDS011;9515;50.810;4.418;2022-08-14T00:47:16;3.08;;;2.88;;
18772;SDS011;9515;50.810;4.418;2022-08-14T00:49:44;3.22;;;2.60;;
18772;SDS011;9515;50.810;4.418;2022-08-14T00:52:13;7.10;;;3.00;;
18772;SDS011;9515;50.810;4.418;2022-08-14T00:54:40;6.10;;;2.80;;
18772;SDS011;9515;50.810;4.418;2022-08-14T00:57:07;4.32;;;2.97;;
18772;SDS011;9515;50.810;4.418;2022-08-14T00:59:33;4.90;;;3.15;;
18772;SDS011;9515;50.810;4.418;2022-08-14T01:02:00;4.38;;;2.80;;
18772;SDS011;9515;50.810;4.418;2022-08-14T01:04:27;4.97;;;2.72;;
18772;SDS011;9515;50.810;4.418;2022-08-14T01:06:56;4.30;;;3.13;;
18772;SDS011;9515;50.810;4.418;2022-08-14T01:09:22;3.65;;;2.70;;
18772;SDS011;9515;50.810;4.418;2022-08-14T01:11:49;4.88;;;2.92;;
18772;SDS011;9515;50.810;4.418;2022-08-14T01:14:15;4.18;;;2.80;;
18772;SDS011;9515;50.810;4.418;2022-08-14T01:16:42;4.20;;;2.80;;
18772;SDS011;9515;50.810;4.418;2022-08-14T01:19:08;3.45;;;2.90;;
18772;SDS011;9515;50.810;4.418;2022-08-14T01:21:52;4.10;;;2.97;;
18772;SDS011;9515;50.810;4.418;2022-08-14T01:24:18;4.65;;;2.80;;
18772;SDS011;9515;50.810;4.418;2022-08-14T01:26:45;3.58;;;2.63;;
18772;SDS011;9515;50.810;4.418;2022-08-14T01:29:11;7.18;;;3.03;;
18772;SDS011;9515;50.810;4.418;2022-08-14T01:31:37;3.47;;;3.13;;
18772;SDS011;9515;50.810;4.418;2022-08-14T01:34:24;3.20;;;2.90;;
18772;SDS011;9515;50.810;4.418;2022-08-14T01:36:50;3.58;;;3.08;;
18772;SDS011;9515;50.810;4.418;2022-08-14T01:39:18;4.18;;;3.13;;
18772;SDS011;9515;50.810;4.418;2022-08-14T01:41:45;3.58;;;3.30;;
18772;SDS011;9515;50.810;4.418;2022-08-14T01:44:20;3.53;;;3.15;;
18772;SDS011;9515;50.810;4.418;2022-08-14T01:46:50;3.95;;;3.35;;
18772;SDS011;9515;50.810;4.418;2022-08-14T01:49:18;4.10;;;2.90;;
18772;SDS011;9515;50.810;4.418;2022-08-14T01:51:45;4.15;;;3.38;;
18772;SDS011;9515;50.810;4.418;2022-08-14T01:54:16;3.35;;;3.08;;
18772;SDS011;9515;50.810;4.418;2022-08-14T01:56:47;3.53;;;3.20;;
18772;SDS011;9515;50.810;4.418;2022-08-14T01:59:22;3.33;;;2.80;;
18772;SDS011;9515;50.810;4.418;2022-08-14T02:01:53;3.17;;;2.88;;
18772;SDS011;9515;50.810;4.418;2022-08-14T02:04:22;3.42;;;3.13;;
18772;SDS011;9515;50.810;4.418;2022-08-14T02:06:49;3.83;;;3.38;;
18772;SDS011;9515;50.810;4.418;2022-08-14T02:09:16;3.67;;;3.22;;
18772;SDS011;9515;50.810;4.418;2022-08-14T02:11:43;7.32;;;3.40;;
18772;SDS011;9515;50.810;4.418;2022-08-14T02:14:11;4.20;;;3.38;;
18772;SDS011;9515;50.810;4.418;2022-08-14T02:16:38;3.15;;;2.95;;
18772;SDS011;9515;50.810;4.418;2022-08-14T02:19:06;3.72;;;3.42;;
18772;SDS011;9515;50.810;4.418;2022-08-14T02:21:34;3.92;;;3.30;;
18772;SDS011;9515;50.810;4.418;2022-08-14T02:24:03;11.57;;;3.53;;
18772;SDS011;9515;50.810;4.418;2022-08-14T02:26:30;3.65;;;3.35;;
18772;SDS011;9515;50.810;4.418;2022-08-14T02:28:59;3.78;;;3.20;;
18772;SDS011;9515;50.810;4.418;2022-08-14T02:31:27;4.10;;;3.00;;
18772;SDS011;9515;50.810;4.418;2022-08-14T02:33:56;4.07;;;3.22;;
18772;SDS011;9515;50.810;4.418;2022-08-14T02:36:30;6.80;;;3.17;;
18772;SDS011;9515;50.810;4.418;2022-08-14T02:38:56;2.85;;;2.65;;
18772;SDS011;9515;50.810;4.418;2022-08-14T02:41:22;3.67;;;3.17;;
18772;SDS011;9515;50.810;4.418;2022-08-14T02:43:49;5.38;;;3.30;;
18772;SDS011;9515;50.810;4.418;2022-08-14T02:46:15;3.40;;;3.10;;
18772;SDS011;9515;50.810;4.418;2022-08-14T02:48:41;3.15;;;2.95;;
18772;SDS011;9515;50.810;4.418;2022-08-14T02:51:09;3.35;;;3.05;;
18772;SDS011;9515;50.810;4.418;2022-08-14T02:53:41;3.85;;;3.28;;
18772;SDS011;9515;50.810;4.418;2022-08-14T02:56:11;4.22;;;3.20;;
18772;SDS011;9515;50.810;4.418;2022-08-14T02:58:39;3.40;;;3.10;;
18772;SDS011;9515;50.810;4.418;2022-08-14T03:01:11;3.65;;;3.33;;
18772;SDS011;9515;50.810;4.418;2022-08-14T03:03:39;3.83;;;3.40;;
18772;SDS011;9515;50.810;4.418;2022-08-14T03:06:06;4.60;;;3.47;;
18772;SDS011;9515;50.810;4.418;2022-08-14T03:08:32;3.40;;;3.00;;
18772;SDS011;9515;50.810;4.418;2022-08-14T03:11:02;9.02;;;3.30;;
18772;SDS011;9515;50.810;4.418;2022-08-14T03:13:31;3.60;;;3.30;;
18772;SDS011;9515;50.810;4.418;2022-08-14T03:16:00;3.58;;;3.13;;
18772;SDS011;9515;50.810;4.418;2022-08-14T03:18:26;3.75;;;3.45;;
18772;SDS011;9515;50.810;4.418;2022-08-14T03:20:53;4.55;;;3.40;;
18772;SDS011;9515;50.810;4.418;2022-08-14T03:23:18;4.03;;;3.40;;
18772;SDS011;9515;50.810;4.418;2022-08-14T03:25:45;4.93;;;3.60;;
18772;SDS011;9515;50.810;4.418;2022-08-14T03:28:11;3.63;;;3.35;;
18772;SDS011;9515;50.810;4.418;2022-08-14T03:30:38;3.75;;;3.40;;
18772;SDS011;9515;50.810;4.418;2022-08-14T03:33:05;5.05;;;3.22;;
18772;SDS011;9515;50.810;4.418;2022-08-14T03:35:32;3.65;;;3.30;;
18772;SDS011;9515;50.810;4.418;2022-08-14T03:38:09;3.78;;;3.17;;
18772;SDS011;9515;50.810;4.418;2022-08-14T03:40:39;4.00;;;3.35;;
18772;SDS011;9515;50.810;4.418;2022-08-14T03:43:06;3.85;;;3.03;;
18772;SDS011;9515;50.810;4.418;2022-08-14T03:45:33;4.10;;;3.47;;
18772;SDS011;9515;50.810;4.418;2022-08-14T03:48:01;5.47;;;3.83;;
18772;SDS011;9515;50.810;4.418;2022-08-14T03:50:39;4.47;;;3.50;;
18772;SDS011;9515;50.810;4.418;2022-08-14T03:53:08;3.50;;;3.30;;
18772;SDS011;9515;50.810;4.418;2022-08-14T03:55:37;4.38;;;3.60;;
18772;SDS011;9515;50.810;4.418;2022-08-14T03:58:04;5.93;;;3.80;;
18772;SDS011;9515;50.810;4.418;2022-08-14T04:00:31;6.30;;;4.25;;
18772;SDS011;9515;50.810;4.418;2022-08-14T04:02:56;5.80;;;3.13;;
18772;SDS011;9515;50.810;4.418;2022-08-14T04:05:22;3.45;;;3.20;;
18772;SDS011;9515;50.810;4.418;2022-08-14T04:07:49;4.40;;;3.30;;
18772;SDS011;9515;50.810;4.418;2022-08-14T04:10:14;4.90;;;3.33;;
18772;SDS011;9515;50.810;4.418;2022-08-14T04:12:41;4.22;;;3.67;;
18772;SDS011;9515;50.810;4.418;2022-08-14T04:15:07;3.88;;;3.42;;
18772;SDS011;9515;50.810;4.418;2022-08-14T04:17:34;3.75;;;3.30;;
18772;SDS011;9515;50.810;4.418;2022-08-14T04:20:00;7.53;;;3.67;;
18772;SDS011;9515;50.810;4.418;2022-08-14T04:22:31;8.18;;;3.60;;
18772;SDS011;9515;50.810;4.418;2022-08-14T04:24:57;4.43;;;4.03;;
18772;SDS011;9515;50.810;4.418;2022-08-14T04:27:25;5.20;;;3.85;;
18772;SDS011;9515;50.810;4.418;2022-08-14T04:29:51;5.68;;;3.83;;
18772;SDS011;9515;50.810;4.418;2022-08-14T04:32:18;4.50;;;4.10;;
18772;SDS011;9515;50.810;4.418;2022-08-14T04:38:06;3.90;;;3.60;;
18772;SDS011;9515;50.810;4.418;2022-08-14T04:40:51;4.10;;;3.72;;
18772;SDS011;9515;50.810;4.418;2022-08-14T04:43:35;5.22;;;3.80;;
18772;SDS011;9515;50.810;4.418;2022-08-14T04:46:04;4.75;;;3.60;;
18772;SDS011;9515;50.810;4.418;2022-08-14T04:48:40;5.00;;;4.18;;
18772;SDS011;9515;50.810;4.418;2022-08-14T04:51:08;4.40;;;4.00;;
18772;SDS011;9515;50.810;4.418;2022-08-14T04:53:38;4.28;;;3.88;;
18772;SDS011;9515;50.810;4.418;2022-08-14T04:56:06;9.20;;;4.03;;
18772;SDS011;9515;50.810;4.418;2022-08-14T04:58:33;7.57;;;4.57;;
18772;SDS011;9515;50.810;4.418;2022-08-14T05:01:02;4.35;;;3.75;;
18772;SDS011;9515;50.810;4.418;2022-08-14T05:03:30;3.95;;;3.40;;
18772;SDS011;9515;50.810;4.418;2022-08-14T05:05:58;4.82;;;3.42;;
18772;SDS011;9515;50.810;4.418;2022-08-14T05:08:25;6.43;;;3.78;;
18772;SDS011;9515;50.810;4.418;2022-08-14T05:10:52;5.28;;;3.28;;
18772;SDS011;9515;50.810;4.418;2022-08-14T05:13:20;5.95;;;3.35;;
18772;SDS011;9515;50.810;4.418;2022-08-14T05:15:47;5.68;;;3.33;;
18772;SDS011;9515;50.810;4.418;2022-08-14T05:18:27;3.45;;;3.08;;
18772;SDS011;9515;50.810;4.418;2022-08-14T05:20:59;3.88;;;2.97;;
18772;SDS011;9515;50.810;4.418;2022-08-14T05:23:27;3.88;;;3.58;;
18772;SDS011;9515;50.810;4.418;2022-08-14T05:25:57;3.75;;;2.97;;
18772;SDS011;9515;50.810;4.418;2022-08-14T05:28:28;3.70;;;3.30;;
18772;SDS011;9515;50.810;4.418;2022-08-14T05:30:59;3.20;;;2.90;;
18772;SDS011;9515;50.810;4.418;2022-08-14T05:33:27;5.43;;;2.88;;
18772;SDS011;9515;50.810;4.418;2022-08-14T05:35:54;3.53;;;2.50;;
18772;SDS011;9515;50.810;4.418;2022-08-14T05:38:25;5.45;;;2.90;;
18772;SDS011;9515;50.810;4.418;2022-08-14T05:41:01;5.65;;;2.75;;
18772;SDS011;9515;50.810;4.418;2022-08-14T05:43:36;6.68;;;3.05;;
18772;SDS011;9515;50.810;4.418;2022-08-14T05:46:02;2.75;;;2.55;;
18772;SDS011;9515;50.810;4.418;2022-08-14T05:48:28;3.67;;;2.50;;
18772;SDS011;9515;50.810;4.418;2022-08-14T05:50:54;2.80;;;2.60;;
18772;SDS011;9515;50.810;4.418;2022-08-14T05:53:23;4.85;;;2.65;;
18772;SDS011;9515;50.810;4.418;2022-08-14T05:55:50;5.32;;;2.38;;
18772;SDS011;9515;50.810;4.418;2022-08-14T05:58:17;5.15;;;2.92;;
18772;SDS011;9515;50.810;4.418;2022-08-14T06:00:44;4.20;;;2.13;;
18772;SDS011;9515;50.810;4.418;2022-08-14T06:03:15;3.63;;;2.45;;
18772;SDS011;9515;50.810;4.418;2022-08-14T06:05:43;3.28;;;2.38;;
18772;SDS011;9515;50.810;4.418;2022-08-14T06:08:29;5.60;;;2.50;;
18772;SDS011;9515;50.810;4.418;2022-08-14T06:10:59;4.20;;;2.15;;
18772;SDS011;9515;50.810;4.418;2022-08-14T06:13:30;4.28;;;2.47;;
18772;SDS011;9515;50.810;4.418;2022-08-14T06:16:07;2.38;;;2.20;;
18772;SDS011;9515;50.810;4.418;2022-08-14T06:18:33;4.88;;;2.47;;
18772;SDS011;9515;50.810;4.418;2022-08-14T06:21:00;3.90;;;2.50;;
18772;SDS011;9515;50.810;4.418;2022-08-14T06:23:27;2.60;;;2.50;;
18772;SDS011;9515;50.810;4.418;2022-08-14T06:25:53;2.72;;;2.53;;
18772;SDS011;9515;50.810;4.418;2022-08-14T06:28:19;5.25;;;2.40;;
18772;SDS011;9515;50.810;4.418;2022-08-14T06:30:47;5.22;;;2.53;;
18772;SDS011;9515;50.810;4.418;2022-08-14T06:33:14;3.05;;;2.85;;
18772;SDS011;9515;50.810;4.418;2022-08-14T06:35:41;2.95;;;2.33;;
18772;SDS011;9515;50.810;4.418;2022-08-14T06:38:07;3.55;;;2.40;;
18772;SDS011;9515;50.810;4.418;2022-08-14T06:40:38;4.20;;;3.00;;
18772;SDS011;9515;50.810;4.418;2022-08-14T06:43:04;3.30;;;2.72;;
18772;SDS011;9515;50.810;4.418;2022-08-14T06:45:32;3.97;;;2.72;;
18772;SDS011;9515;50.810;4.418;2022-08-14T06:47:59;6.93;;;3.17;;
18772;SDS011;9515;50.810;4.418;2022-08-14T06:50:26;3.15;;;2.97;;
18772;SDS011;9515;50.810;4.418;2022-08-14T06:52:52;3.45;;;3.25;;
18772;SDS011;9515;50.810;4.418;2022-08-14T06:55:18;4.50;;;3.22;;
18772;SDS011;9515;50.810;4.418;2022-08-14T06:57:46;4.68;;;3.40;;
18772;SDS011;9515;50.810;4.418;2022-08-14T07:00:14;8.27;;;3.80;;
18772;SDS011;9515;50.810;4.418;2022-08-14T07:02:45;3.95;;;3.47;;
18772;SDS011;9515;50.810;4.418;2022-08-14T07:05:30;3.92;;;3.53;;
18772;SDS011;9515;50.810;4.418;2022-08-14T07:10:42;5.15;;;3.60;;
18772;SDS011;9515;50.810;4.418;2022-08-14T07:13:14;5.00;;;3.40;;
18772;SDS011;9515;50.810;4.418;2022-08-14T07:15:41;6.28;;;3.78;;
18772;SDS011;9515;50.810;4.418;2022-08-14T07:18:09;6.28;;;3.30;;
18772;SDS011;9515;50.810;4.418;2022-08-14T07:20:36;4.00;;;3.60;;
18772;SDS011;9515;50.810;4.418;2022-08-14T07:23:05;6.13;;;3.90;;
18772;SDS011;9515;50.810;4.418;2022-08-14T07:25:31;3.50;;;3.20;;
18772;SDS011;9515;50.810;4.418;2022-08-14T07:27:57;4.05;;;2.92;;
18772;SDS011;9515;50.810;4.418;2022-08-14T07:30:23;5.47;;;3.30;;
18772;SDS011;9515;50.810;4.418;2022-08-14T07:32:49;3.28;;;2.90;;
18772;SDS011;9515;50.810;4.418;2022-08-14T07:35:15;6.38;;;2.80;;
18772;SDS011;9515;50.810;4.418;2022-08-14T07:37:41;3.42;;;3.20;;
18772;SDS011;9515;50.810;4.418;2022-08-14T07:40:07;2.97;;;2.75;;
18772;SDS011;9515;50.810;4.418;2022-08-14T07:42:34;4.75;;;3.10;;
18772;SDS011;9515;50.810;4.418;2022-08-14T07:45:01;3.95;;;3.40;;
18772;SDS011;9515;50.810;4.418;2022-08-14T07:47:26;6.60;;;3.22;;
18772;SDS011;9515;50.810;4.418;2022-08-14T07:50:00;4.68;;;2.90;;
18772;SDS011;9515;50.810;4.418;2022-08-14T07:52:28;3.20;;;2.67;;
18772;SDS011;9515;50.810;4.418;2022-08-14T07:54:54;3.22;;;2.92;;
18772;SDS011;9515;50.810;4.418;2022-08-14T07:57:20;3.10;;;2.90;;
18772;SDS011;9515;50.810;4.418;2022-08-14T07:59:46;3.35;;;2.90;;
18772;SDS011;9515;50.810;4.418;2022-08-14T08:02:14;4.00;;;2.97;;
18772;SDS011;9515;50.810;4.418;2022-08-14T08:04:42;3.40;;;3.05;;
18772;SDS011;9515;50.810;4.418;2022-08-14T08:07:09;5.07;;;3.08;;
18772;SDS011;9515;50.810;4.418;2022-08-14T08:09:35;3.30;;;3.10;;
18772;SDS011;9515;50.810;4.418;2022-08-14T08:12:04;3.25;;;3.05;;
18772;SDS011;9515;50.810;4.418;2022-08-14T08:14:31;3.13;;;2.92;;
18772;SDS011;9515;50.810;4.418;2022-08-14T08:16:58;7.22;;;3.10;;
18772;SDS011;9515;50.810;4.418;2022-08-14T08:19:24;4.03;;;2.92;;
18772;SDS011;9515;50.810;4.418;2022-08-14T08:21:50;5.28;;;2.95;;
18772;SDS011;9515;50.810;4.418;2022-08-14T08:24:17;4.03;;;3.00;;
18772;SDS011;9515;50.810;4.418;2022-08-14T08:26:43;3.20;;;3.00;;
18772;SDS011;9515;50.810;4.418;2022-08-14T08:29:08;2.85;;;2.65;;
18772;SDS011;9515;50.810;4.418;2022-08-14T08:31:44;3.22;;;3.03;;
18772;SDS011;9515;50.810;4.418;2022-08-14T08:34:13;3.17;;;2.90;;
18772;SDS011;9515;50.810;4.418;2022-08-14T08:36:40;3.78;;;2.78;;
18772;SDS011;9515;50.810;4.418;2022-08-14T08:39:07;4.32;;;3.00;;
18772;SDS011;9515;50.810;4.418;2022-08-14T08:41:44;4.30;;;2.97;;
18772;SDS011;9515;50.810;4.418;2022-08-14T08:44:11;3.83;;;3.45;;
18772;SDS011;9515;50.810;4.418;2022-08-14T08:46:37;3.25;;;2.67;;
18772;SDS011;9515;50.810;4.418;2022-08-14T08:49:04;3.30;;;3.10;;
18772;SDS011;9515;50.810;4.418;2022-08-14T08:51:36;7.07;;;2.95;;
18772;SDS011;9515;50.810;4.418;2022-08-14T08:54:11;3.08;;;2.88;;
18772;SDS011;9515;50.810;4.418;2022-08-14T08:56:39;3.85;;;3.13;;
18772;SDS011;9515;50.810;4.418;2022-08-14T08:59:25;3.78;;;3.03;;
18772;SDS011;9515;50.810;4.418;2022-08-14T09:01:59;3.25;;;2.80;;
18772;SDS011;9515;50.810;4.418;2022-08-14T09:04:27;3.13;;;2.92;;
18772;SDS011;9515;50.810;4.418;2022-08-14T09:06:58;5.05;;;3.08;;
18772;SDS011;9515;50.810;4.418;2022-08-14T09:09:27;4.20;;;3.05;;
18772;SDS011;9515;50.810;4.418;2022-08-14T09:11:56;4.25;;;3.15;;
18772;SDS011;9515;50.810;4.418;2022-08-14T09:14:24;6.72;;;2.90;;
18772;SDS011;9515;50.810;4.418;2022-08-14T09:16:53;3.13;;;2.92;;
18772;SDS011;9515;50.810;4.418;2022-08-14T09:19:20;4.35;;;3.08;;
18772;SDS011;9515;50.810;4.418;2022-08-14T09:21:46;4.07;;;3.10;;
18772;SDS011;9515;50.810;4.418;2022-08-14T09:24:12;2.90;;;2.80;;
18772;SDS011;9515;50.810;4.418;2022-08-14T09:26:39;3.83;;;2.80;;
18772;SDS011;9515;50.810;4.418;2022-08-14T09:29:06;3.20;;;2.92;;
18772;SDS011;9515;50.810;4.418;2022-08-14T09:31:33;6.18;;;3.20;;
18772;SDS011;9515;50.810;4.418;2022-08-14T09:34:40;4.55;;;3.13;;
18772;SDS011;9515;50.810;4.418;2022-08-14T09:40:04;3.45;;;3.15;;
18772;SDS011;9515;50.810;4.418;2022-08-14T09:45:14;4.57;;;3.00;;
18772;SDS011;9515;50.810;4.418;2022-08-14T09:47:53;5.72;;;3.05;;
18772;SDS011;9515;50.810;4.418;2022-08-14T09:50:26;4.00;;;3.00;;
18772;SDS011;9515;50.810;4.418;2022-08-14T09:53:01;5.20;;;3.25;;
18772;SDS011;9515;50.810;4.418;2022-08-14T09:55:29;3.53;;;3.00;;
18772;SDS011;9515;50.810;4.418;2022-08-14T09:58:06;4.40;;;3.20;;
18772;SDS011;9515;50.810;4.418;2022-08-14T10:00:47;3.85;;;3.17;;
18772;SDS011;9515;50.810;4.418;2022-08-14T10:11:13;6.10;;;3.00;;
18772;SDS011;9515;50.810;4.418;2022-08-14T10:13:41;3.92;;;2.75;;
18772;SDS011;9515;50.810;4.418;2022-08-14T10:16:07;2.97;;;2.78;;
18772;SDS011;9515;50.810;4.418;2022-08-14T10:18:33;3.47;;;2.97;;
18772;SDS011;9515;50.810;4.418;2022-08-14T10:20:59;4.63;;;2.70;;
18772;SDS011;9515;50.810;4.418;2022-08-14T10:23:27;5.10;;;2.42;;
18772;SDS011;9515;50.810;4.418;2022-08-14T10:26:05;2.53;;;2.33;;
18772;SDS011;9515;50.810;4.418;2022-08-14T10:29:32;5.10;;;2.60;;
18772;SDS011;9515;50.810;4.418;2022-08-14T10:31:30;3.97;;;2.75;;
18772;SDS011;9515;50.810;4.418;2022-08-14T10:33:59;2.95;;;2.55;;
18772;SDS011;9515;50.810;4.418;2022-08-14T10:36:37;3.55;;;2.70;;
18772;SDS011;9515;50.810;4.418;2022-08-14T10:39:20;2.45;;;2.25;;
18772;SDS011;9515;50.810;4.418;2022-08-14T10:41:52;2.60;;;2.40;;
18772;SDS011;9515;50.810;4.418;2022-08-14T10:44:33;4.75;;;2.28;;
18772;SDS011;9515;50.810;4.418;2022-08-14T10:47:02;3.15;;;2.17;;
18772;SDS011;9515;50.810;4.418;2022-08-14T10:49:35;2.47;;;2.30;;
18772;SDS011;9515;50.810;4.418;2022-08-14T10:52:03;2.20;;;2.10;;
18772;SDS011;9515;50.810;4.418;2022-08-14T10:54:50;2.20;;;2.00;;
18772;SDS011;9515;50.810;4.418;2022-08-14T11:02:27;2.70;;;2.13;;
18772;SDS011;9515;50.810;4.418;2022-08-14T11:07:35;3.17;;;1.80;;
18772;SDS011;9515;50.810;4.418;2022-08-14T11:12:46;2.30;;;2.10;;
18772;SDS011;9515;50.810;4.418;2022-08-14T11:15:18;4.07;;;3.05;;
18772;SDS011;9515;50.810;4.418;2022-08-14T11:17:46;2.22;;;2.00;;
18772;SDS011;9515;50.810;4.418;2022-08-14T11:20:15;2.35;;;2.25;;
18772;SDS011;9515;50.810;4.418;2022-08-14T11:22:43;2.10;;;1.90;;
18772;SDS011;9515;50.810;4.418;2022-08-14T11:25:11;2.40;;;2.13;;
18772;SDS011;9515;50.810;4.418;2022-08-14T11:27:39;2.22;;;2.00;;
18772;SDS011;9515;50.810;4.418;2022-08-14T11:30:09;3.45;;;2.00;;
18772;SDS011;9515;50.810;4.418;2022-08-14T11:32:37;2.65;;;1.63;;
18772;SDS011;9515;50.810;4.418;2022-08-14T11:35:04;3.00;;;2.35;;
18772;SDS011;9515;50.810;4.418;2022-08-14T11:37:30;5.15;;;2.55;;
18772;SDS011;9515;50.810;4.418;2022-08-14T11:40:01;4.88;;;2.10;;
18772;SDS011;9515;50.810;4.418;2022-08-14T11:42:27;2.45;;;1.90;;
18772;SDS011;9515;50.810;4.418;2022-08-14T11:44:58;3.00;;;2.00;;
18772;SDS011;9515;50.810;4.418;2022-08-14T11:47:29;1.95;;;1.85;;
18772;SDS011;9515;50.810;4.418;2022-08-14T11:49:57;2.15;;;2.00;;
18772;SDS011;9515;50.810;4.418;2022-08-14T11:52:31;2.33;;;1.80;;
18772;SDS011;9515;50.810;4.418;2022-08-14T11:55:01;1.98;;;1.88;;
18772;SDS011;9515;50.810;4.418;2022-08-14T11:57:31;2.17;;;1.73;;
18772;SDS011;9515;50.810;4.418;2022-08-14T12:00:04;2.17;;;1.70;;
18772;SDS011;9515;50.810;4.418;2022-08-14T12:02:33;2.50;;;1.70;;
18772;SDS011;9515;50.810;4.418;2022-08-14T12:04:59;2.10;;;1.90;;
18772;SDS011;9515;50.810;4.418;2022-08-14T12:07:28;2.40;;;1.90;;
18772;SDS011;9515;50.810;4.418;2022-08-14T12:09:55;2.25;;;1.92;;
18772;SDS011;9515;50.810;4.418;2022-08-14T12:12:22;2.85;;;1.88;;
18772;SDS011;9515;50.810;4.418;2022-08-14T12:14:51;2.03;;;1.90;;
18772;SDS011;9515;50.810;4.418;2022-08-14T12:17:27;1.67;;;1.60;;
18772;SDS011;9515;50.810;4.418;2022-08-14T12:19:59;2.92;;;1.80;;
18772;SDS011;9515;50.810;4.418;2022-08-14T12:25:21;1.60;;;1.50;;
18772;SDS011;9515;50.810;4.418;2022-08-14T12:27:48;3.25;;;1.60;;
18772;SDS011;9515;50.810;4.418;2022-08-14T12:30:26;2.85;;;1.60;;
18772;SDS011;9515;50.810;4.418;2022-08-14T12:32:56;1.65;;;1.55;;
18772;SDS011;9515;50.810;4.418;2022-08-14T12:35:21;2.47;;;1.70;;
18772;SDS011;9515;50.810;4.418;2022-08-14T12:37:48;3.00;;;1.80;;
18772;SDS011;9515;50.810;4.418;2022-08-14T12:40:16;2.85;;;1.88;;
18772;SDS011;9515;50.810;4.418;2022-08-14T12:42:48;2.80;;;2.10;;
18772;SDS011;9515;50.810;4.418;2022-08-14T12:45:13;4.78;;;2.08;;
18772;SDS011;9515;50.810;4.418;2022-08-14T12:47:40;1.77;;;1.67;;
18772;SDS011;9515;50.810;4.418;2022-08-14T12:50:07;2.95;;;1.75;;
18772;SDS011;9515;50.810;4.418;2022-08-14T12:52:35;3.20;;;1.50;;
18772;SDS011;9515;50.810;4.418;2022-08-14T12:55:08;1.92;;;1.83;;
18772;SDS011;9515;50.810;4.418;2022-08-14T12:57:39;5.22;;;1.73;;
18772;SDS011;9515;50.810;4.418;2022-08-14T13:02:43;3.05;;;1.77;;
18772;SDS011;9515;50.810;4.418;2022-08-14T13:05:14;1.67;;;1.58;;
18772;SDS011;9515;50.810;4.418;2022-08-14T13:07:41;6.75;;;2.22;;
18772;SDS011;9515;50.810;4.418;2022-08-14T13:10:11;3.10;;;2.10;;
18772;SDS011;9515;50.810;4.418;2022-08-14T13:12:40;2.65;;;1.70;;
18772;SDS011;9515;50.810;4.418;2022-08-14T13:15:08;3.55;;;1.80;;
18772;SDS011;9515;50.810;4.418;2022-08-14T13:17:38;1.77;;;1.67;;
18772;SDS011;9515;50.810;4.418;2022-08-14T13:20:17;4.00;;;2.20;;
18772;SDS011;9515;50.810;4.418;2022-08-14T13:22:44;2.08;;;1.75;;
18772;SDS011;9515;50.810;4.418;2022-08-14T13:25:15;1.80;;;1.70;;
18772;SDS011;9515;50.810;4.418;2022-08-14T13:27:46;2.30;;;2.10;;
18772;SDS011;9515;50.810;4.418;2022-08-14T13:30:13;2.10;;;1.80;;
18772;SDS011;9515;50.810;4.418;2022-08-14T13:32:42;2.35;;;2.00;;
18772;SDS011;9515;50.810;4.418;2022-08-14T13:35:12;3.15;;;2.15;;
18772;SDS011;9515;50.810;4.418;2022-08-14T13:37:42;2.15;;;2.05;;
18772;SDS011;9515;50.810;4.418;2022-08-14T13:40:09;2.00;;;1.80;;
18772;SDS011;9515;50.810;4.418;2022-08-14T13:42:39;5.25;;;2.15;;
18772;SDS011;9515;50.810;4.418;2022-08-14T13:45:06;3.88;;;1.90;;
18772;SDS011;9515;50.810;4.418;2022-08-14T13:47:33;2.13;;;1.80;;
18772;SDS011;9515;50.810;4.418;2022-08-14T13:50:00;2.63;;;2.10;;
18772;SDS011;9515;50.810;4.418;2022-08-14T13:52:30;2.55;;;1.75;;
18772;SDS011;9515;50.810;4.418;2022-08-14T13:55:00;2.10;;;2.00;;
18772;SDS011;9515;50.810;4.418;2022-08-14T13:57:28;2.13;;;1.90;;
18772;SDS011;9515;50.810;4.418;2022-08-14T13:59:59;2.58;;;1.77;;
18772;SDS011;9515;50.810;4.418;2022-08-14T14:02:40;2.47;;;1.83;;
18772;SDS011;9515;50.810;4.418;2022-08-14T14:05:09;2.83;;;1.85;;
18772;SDS011;9515;50.810;4.418;2022-08-14T14:07:38;4.60;;;2.00;;
18772;SDS011;9515;50.810;4.418;2022-08-14T14:10:10;2.80;;;1.77;;
18772;SDS011;9515;50.810;4.418;2022-08-14T14:12:37;2.03;;;1.90;;
18772;SDS011;9515;50.810;4.418;2022-08-14T14:15:08;4.22;;;1.83;;
18772;SDS011;9515;50.810;4.418;2022-08-14T14:17:37;2.45;;;1.90;;
18772;SDS011;9515;50.810;4.418;2022-08-14T14:20:07;2.45;;;2.10;;
18772;SDS011;9515;50.810;4.418;2022-08-14T14:22:35;2.85;;;2.03;;
18772;SDS011;9515;50.810;4.418;2022-08-14T14:25:08;4.05;;;1.98;;
18772;SDS011;9515;50.810;4.418;2022-08-14T14:27:36;3.10;;;1.77;;
18772;SDS011;9515;50.810;4.418;2022-08-14T14:30:04;2.13;;;1.88;;
18772;SDS011;9515;50.810;4.418;2022-08-14T14:32:31;1.95;;;1.85;;
18772;SDS011;9515;50.810;4.418;2022-08-14T14:35:00;3.92;;;2.10;;
18772;SDS011;9515;50.810;4.418;2022-08-14T14:37:29;3.58;;;1.92;;
18772;SDS011;9515;50.810;4.418;2022-08-14T14:39:56;2.35;;;1.75;;
18772;SDS011;9515;50.810;4.418;2022-08-14T14:42:23;3.30;;;2.20;;
18772;SDS011;9515;50.810;4.418;2022-08-14T14:44:51;2.83;;;2.00;;
18772;SDS011;9515;50.810;4.418;2022-08-14T14:47:25;1.95;;;1.75;;
18772;SDS011;9515;50.810;4.418;2022-08-14T14:49:53;2.15;;;1.85;;
18772;SDS011;9515;50.810;4.418;2022-08-14T14:52:20;1.90;;;1.80;;
18772;SDS011;9515;50.810;4.418;2022-08-14T14:54:48;3.67;;;2.40;;
18772;SDS011;9515;50.810;4.418;2022-08-14T14:57:15;3.08;;;1.90;;
18772;SDS011;9515;50.810;4.418;2022-08-14T14:59:41;2.80;;;2.13;;
18772;SDS011;9515;50.810;4.418;2022-08-14T15:02:07;2.35;;;2.15;;
18772;SDS011;9515;50.810;4.418;2022-08-14T15:04:34;4.20;;;2.17;;
18772;SDS011;9515;50.810;4.418;2022-08-14T15:07:02;3.05;;;1.90;;
18772;SDS011;9515;50.810;4.418;2022-08-14T15:09:30;3.63;;;1.80;;
18772;SDS011;9515;50.810;4.418;2022-08-14T15:11:57;2.35;;;2.15;;
18772;SDS011;9515;50.810;4.418;2022-08-14T15:14:23;3.42;;;2.00;;
18772;SDS011;9515;50.810;4.418;2022-08-14T15:16:48;2.35;;;2.10;;
18772;SDS011;9515;50.810;4.418;2022-08-14T15:19:15;3.28;;;1.75;;
18772;SDS011;9515;50.810;4.418;2022-08-14T15:21:40;1.90;;;1.80;;
18772;SDS011;9515;50.810;4.418;2022-08-14T15:24:06;2.03;;;1.92;;
18772;SDS011;9515;50.810;4.418;2022-08-14T15:26:32;2.20;;;2.03;;
18772;SDS011;9515;50.810;4.418;2022-08-14T15:29:03;3.58;;;1.83;;
18772;SDS011;9515;50.810;4.418;2022-08-14T15:31:30;2.70;;;2.10;;
18772;SDS011;9515;50.810;4.418;2022-08-14T15:33:56;2.92;;;1.95;;
18772;SDS011;9515;50.810;4.418;2022-08-14T15:36:41;2.80;;;1.90;;
18772;SDS011;9515;50.810;4.418;2022-08-14T15:39:09;2.30;;;1.92;;
18772;SDS011;9515;50.810;4.418;2022-08-14T15:41:36;4.25;;;2.33;;
18772;SDS011;9515;50.810;4.418;2022-08-14T15:44:02;2.72;;;1.90;;
18772;SDS011;9515;50.810;4.418;2022-08-14T15:46:28;4.20;;;2.17;;